createdAt,value
2022-08-22T00:02:53.247Z,4.07
2022-08-22T00:02:59.073Z,5.00
2022-08-22T00:03:38.762Z,5.40
2022-08-22T00:08:52.213Z,5.30
2022-08-22T00:14:02.228Z,5.10
2022-08-22T00:19:14.764Z,5.20
2022-08-22T00:24:25.906Z,5.00
2022-08-22T00:29:35.992Z,4.60
2022-08-22T00:34:49.767Z,5.20
2022-08-22T00:40:03.390Z,5.37
2022-08-22T00:45:58.840Z,5.30
2022-08-22T00:51:20.082Z,5.37
2022-08-22T00:57:01.529Z,4.97
2022-08-22T01:02:33.440Z,4.90
2022-08-22T01:07:55.291Z,5.10
2022-08-22T01:13:13.111Z,4.80
2022-08-22T01:18:56.007Z,4.90
2022-08-22T01:24:32.640Z,4.60
2022-08-22T01:30:14.324Z,4.70
2022-08-22T01:35:42.332Z,5.20
2022-08-22T01:41:28.021Z,4.53
2022-08-22T01:46:45.700Z,4.93
2022-08-22T01:51:56.555Z,4.93
2022-08-22T01:57:03.306Z,5.33
2022-08-22T02:02:21.145Z,5.57
2022-08-22T02:07:32.076Z,5.07
2022-08-22T02:12:43.646Z,4.57
2022-08-22T02:18:01.183Z,5.50
2022-08-22T02:23:16.949Z,5.10
2022-08-22T02:28:34.373Z,4.90
2022-08-22T02:33:49.742Z,4.80
2022-08-22T02:39:03.949Z,5.20
2022-08-22T02:44:22.348Z,4.67
2022-08-22T02:49:35.617Z,4.60
2022-08-22T02:54:55.852Z,5.27
2022-08-22T03:00:31.819Z,5.20
2022-08-22T03:05:50.123Z,5.90
2022-08-22T03:11:04.324Z,5.50
2022-08-22T03:16:13.814Z,5.33
2022-08-22T03:21:24.965Z,5.50
2022-08-22T03:26:42.215Z,5.07
2022-08-22T03:32:08.101Z,4.70
2022-08-22T03:43:09.060Z,5.50
2022-08-22T03:48:44.416Z,5.70
2022-08-22T03:54:05.570Z,5.67
2022-08-22T03:59:23.609Z,5.53
2022-08-22T04:04:54.365Z,5.23
2022-08-22T04:10:45.023Z,5.57
2022-08-22T04:16:20.585Z,6.13
2022-08-22T04:21:44.062Z,5.23
2022-08-22T04:26:52.780Z,5.70
2022-08-22T04:32:10.594Z,5.50
2022-08-22T04:37:24.151Z,5.77
2022-08-22T04:42:34.466Z,5.67
2022-08-22T04:47:42.637Z,6.07
2022-08-22T04:53:04.116Z,5.37
2022-08-22T04:58:20.224Z,6.73
2022-08-22T05:03:29.623Z,7.50
2022-08-22T05:08:39.274Z,6.87
2022-08-22T05:13:48.453Z,8.07
2022-08-22T05:18:58.538Z,9.20
2022-08-22T05:24:06.373Z,10.37
2022-08-22T05:29:12.243Z,9.37
2022-08-22T05:34:21.546Z,9.27
2022-08-22T05:39:27.995Z,8.90
2022-08-22T05:44:34.255Z,9.50
2022-08-22T05:49:45.160Z,8.43
2022-08-22T05:54:54.207Z,7.53
2022-08-22T06:00:04.720Z,7.33
2022-08-22T06:05:33.443Z,7.80
2022-08-22T06:10:43.136Z,7.27
2022-08-22T06:16:00.011Z,7.00
2022-08-22T06:21:08.734Z,7.37
2022-08-22T06:26:20.788Z,6.70
2022-08-22T06:31:29.351Z,7.57
2022-08-22T06:36:36.473Z,7.43
2022-08-22T06:41:45.300Z,7.73
2022-08-22T06:46:53.520Z,7.00
2022-08-22T06:52:03.316Z,6.60
2022-08-22T06:57:07.773Z,6.30
2022-08-22T07:02:24.173Z,7.50
2022-08-22T07:07:29.635Z,6.70
2022-08-22T07:12:38.569Z,7.53
2022-08-22T07:17:51.283Z,6.97
2022-08-22T07:22:59.163Z,6.57
2022-08-22T07:28:16.046Z,7.13
2022-08-22T07:33:40.726Z,6.67
2022-08-22T07:38:48.900Z,8.20
2022-08-22T07:43:56.900Z,6.50
2022-08-22T07:49:09.651Z,6.37
2022-08-22T07:54:17.045Z,6.30
2022-08-22T07:59:22.842Z,6.47
2022-08-22T08:04:30.718Z,6.43
2022-08-22T08:09:40.687Z,6.70
2022-08-22T08:14:51.016Z,7.30
2022-08-22T08:19:56.466Z,6.27
2022-08-22T08:25:03.621Z,7.17
2022-08-22T08:30:15.782Z,6.57
2022-08-22T08:35:25.426Z,6.90
2022-08-22T08:40:57.790Z,6.13
2022-08-22T08:46:55.658Z,6.50
2022-08-22T08:52:27.216Z,6.00
2022-08-22T08:57:46.615Z,5.60
2022-08-22T09:02:58.628Z,6.60
2022-08-22T09:08:39.563Z,6.67
2022-08-22T09:13:55.912Z,5.70
2022-08-22T09:19:19.292Z,6.60
2022-08-22T09:25:06.168Z,6.87
2022-08-22T09:30:14.373Z,6.07
2022-08-22T09:35:27.067Z,4.50
2022-08-22T09:40:38.189Z,2.70
2022-08-22T09:45:51.100Z,3.70
2022-08-22T09:51:19.995Z,3.40
2022-08-22T09:56:37.790Z,3.27
2022-08-22T10:01:54.704Z,2.80
2022-08-22T10:07:11.717Z,3.03
2022-08-22T10:12:20.549Z,3.27
2022-08-22T10:17:36.589Z,3.20
2022-08-22T10:22:49.987Z,3.40
2022-08-22T10:28:10.321Z,3.60
2022-08-22T10:33:21.338Z,3.43
2022-08-22T10:38:46.292Z,3.50
2022-08-22T10:44:04.494Z,3.50
2022-08-22T10:49:54.601Z,3.57
2022-08-22T10:55:20.597Z,3.27
2022-08-22T11:00:50.145Z,3.67
2022-08-22T11:05:59.608Z,3.73
2022-08-22T11:11:18.481Z,3.63
2022-08-22T11:16:41.798Z,3.60
2022-08-22T11:21:55.577Z,3.80
2022-08-22T11:27:07.221Z,4.27
2022-08-22T11:32:18.080Z,4.47
2022-08-22T11:37:42.950Z,4.73
2022-08-22T11:42:51.816Z,4.20
2022-08-22T11:48:11.292Z,4.17
2022-08-22T11:53:29.147Z,3.97
2022-08-22T11:58:45.855Z,3.60
2022-08-22T12:04:03.405Z,3.17
2022-08-22T12:09:38.840Z,3.47
2022-08-22T12:14:46.368Z,3.90
2022-08-22T12:20:16.169Z,4.07
2022-08-22T12:25:44.462Z,3.70
2022-08-22T12:30:58.484Z,3.70
2022-08-22T12:36:40.080Z,3.93
2022-08-22T12:42:07.452Z,4.03
2022-08-22T12:47:25.216Z,4.20
2022-08-22T12:52:47.486Z,3.83
2022-08-22T12:58:01.350Z,3.70
2022-08-22T13:03:08.299Z,3.93
2022-08-22T13:08:17.787Z,4.37
2022-08-22T13:13:37.272Z,4.00
2022-08-22T13:18:53.576Z,3.30
2022-08-22T13:23:59.871Z,3.70
2022-08-22T13:29:25.038Z,3.73
2022-08-22T13:34:40.651Z,4.00
2022-08-22T13:39:50.481Z,3.80
2022-08-22T13:44:59.312Z,3.73
2022-08-22T13:50:14.458Z,4.03
2022-08-22T13:55:22.014Z,3.90
2022-08-22T14:01:14.246Z,3.77
2022-08-22T14:06:38.356Z,4.03
2022-08-22T14:11:48.606Z,3.77
2022-08-22T14:16:56.137Z,4.00
2022-08-22T14:22:02.116Z,3.37
2022-08-22T14:27:08.841Z,4.07
2022-08-22T14:32:35.426Z,3.70
2022-08-22T14:37:41.973Z,3.90
2022-08-22T14:42:49.716Z,3.70
2022-08-22T14:48:14.098Z,3.60
2022-08-22T14:53:26.328Z,4.20
2022-08-22T14:58:34.160Z,3.30
2022-08-22T15:03:40.253Z,3.20
2022-08-22T15:08:50.687Z,3.30
2022-08-22T15:14:01.033Z,3.40
2022-08-22T15:19:25.900Z,3.60
2022-08-22T15:24:31.483Z,3.27
2022-08-22T15:29:45.095Z,2.93
2022-08-22T15:34:52.423Z,3.13
2022-08-22T15:40:11.957Z,2.60
2022-08-22T15:45:34.024Z,3.70
2022-08-22T15:50:55.899Z,3.70
2022-08-22T15:56:27.106Z,3.77
2022-08-22T16:01:43.628Z,4.00
2022-08-22T16:06:58.043Z,4.27
2022-08-22T16:12:05.363Z,3.63
2022-08-22T16:17:53.349Z,3.77
2022-08-22T16:23:10.276Z,3.80
2022-08-22T16:28:41.443Z,3.80
2022-08-22T16:33:47.969Z,3.70
2022-08-22T16:38:54.768Z,3.20
2022-08-22T16:44:31.086Z,2.80
2022-08-22T16:49:37.479Z,3.43
2022-08-22T16:54:47.175Z,2.70
2022-08-22T17:00:09.239Z,3.10
2022-08-22T17:05:22.637Z,2.53
2022-08-22T17:10:38.967Z,2.80
2022-08-22T17:15:56.667Z,2.80
2022-08-22T17:21:10.123Z,3.00
2022-08-22T17:26:23.537Z,2.93
2022-08-22T17:31:33.448Z,3.90
2022-08-22T17:37:02.283Z,3.43
2022-08-22T17:42:22.097Z,3.40
2022-08-22T17:47:31.170Z,4.10
2022-08-22T17:52:38.727Z,3.50
2022-08-22T17:57:50.874Z,5.03
2022-08-22T18:02:59.588Z,4.00
2022-08-22T18:08:08.887Z,4.47
2022-08-22T18:13:21.748Z,3.47
2022-08-22T18:18:35.785Z,3.80
2022-08-22T18:23:43.648Z,3.63
2022-08-22T18:28:55.893Z,6.07
2022-08-22T18:34:04.204Z,4.37
2022-08-22T18:39:16.021Z,5.30
2022-08-22T18:44:25.126Z,4.90
2022-08-22T18:49:54.019Z,9.23
2022-08-22T18:55:19.983Z,6.57
2022-08-22T19:00:40.949Z,15.37
2022-08-22T19:06:02.466Z,16.20
2022-08-22T19:11:20.164Z,6.60
2022-08-22T19:16:59.008Z,7.03
2022-08-22T19:22:34.168Z,3.30
2022-08-22T19:27:40.508Z,3.53
2022-08-22T19:33:03.173Z,4.70
2022-08-22T19:38:07.589Z,4.60
2022-08-22T19:43:32.852Z,4.00
2022-08-22T19:48:47.546Z,4.10
2022-08-22T19:54:04.753Z,3.53
2022-08-22T19:59:20.659Z,3.03
2022-08-22T20:04:59.920Z,3.57
2022-08-22T20:10:17.491Z,3.50
2022-08-22T20:15:23.097Z,3.27
2022-08-22T20:20:56.450Z,3.27
2022-08-22T20:26:00.432Z,3.37
2022-08-22T20:31:07.671Z,3.60
2022-08-22T20:36:27.090Z,3.60
2022-08-22T20:41:36.034Z,3.50
2022-08-22T20:46:53.122Z,3.30
2022-08-22T20:52:01.960Z,4.17
2022-08-22T20:57:16.063Z,4.20
2022-08-22T21:02:24.668Z,3.70
2022-08-22T21:07:31.767Z,3.53
2022-08-22T21:12:34.873Z,3.70
2022-08-22T21:17:39.595Z,3.40
2022-08-22T21:22:44.142Z,3.77
2022-08-22T21:27:49.872Z,4.43
2022-08-22T21:32:56.199Z,4.60
2022-08-22T21:38:02.488Z,4.80
2022-08-22T21:43:08.576Z,4.40
2022-08-22T21:48:37.964Z,4.37
2022-08-22T21:53:42.421Z,5.20
2022-08-22T21:58:46.369Z,4.90
2022-08-22T22:03:49.661Z,5.00
2022-08-22T22:08:54.041Z,5.10
2022-08-22T22:13:57.060Z,5.87
2022-08-22T22:19:00.750Z,5.30
2022-08-22T22:24:05.560Z,5.90
2022-08-22T22:29:10.727Z,5.10
2022-08-22T22:34:13.963Z,5.10
2022-08-22T22:39:18.354Z,5.40
2022-08-22T22:44:21.606Z,6.40
2022-08-22T22:49:25.371Z,6.00
2022-08-22T22:54:29.839Z,6.03
2022-08-22T22:59:32.849Z,6.37
2022-08-22T23:04:39.235Z,5.90
2022-08-22T23:09:44.720Z,5.63
2022-08-22T23:14:48.829Z,6.57
2022-08-22T23:19:52.639Z,5.63
2022-08-22T23:24:56.965Z,6.00
2022-08-22T23:29:59.930Z,6.17
2022-08-22T23:35:02.943Z,6.33
2022-08-22T23:40:09.547Z,5.90
2022-08-22T23:45:12.790Z,6.70
2022-08-22T23:50:15.897Z,7.17
2022-08-22T23:55:20.302Z,7.40
